Time;durP1;ratioP1;P1;durP2;ratioP2;P2;SDS_P1;SDS_P2;PMS_P1;PMS_P2;Temp;Humidity;BMP_temperature;BMP_pressure;BME280_temperature;BME280_humidity;BME280_pressure;Samples;Min_cycle;Max_cycle;Signal;HPM_P1;HPM_P2
2022/09/17 00:01:52;;;;;;;25.10;5.25;;;;;;;;;;5093614;28;20389;-74
2022/09/17 00:04:56;;;;;;;19.35;4.75;;;;;;;;;;5094027;28;20490;-74
2022/09/17 00:08:00;;;;;;;21.52;5.85;;;;;;;;;;5093132;28;20047;-74
2022/09/17 00:11:16;;;;;;;20.90;5.00;;;;;;;;;;5094164;28;20036;-74
2022/09/17 00:14:20;;;;;;;22.73;4.78;;;;;;;;;;5094132;28;20051;-74
2022/09/17 00:17:25;;;;;;;22.13;4.88;;;;;;;;;;5092973;28;20044;-74
2022/09/17 00:20:29;;;;;;;17.65;4.95;;;;;;;;;;5094040;28;20051;-73
2022/09/17 00:23:33;;;;;;;19.85;4.30;;;;;;;;;;5093618;28;20040;-73
2022/09/17 00:26:38;;;;;;;22.48;4.75;;;;;;;;;;5093294;28;20043;-74
2022/09/17 00:29:42;;;;;;;25.63;5.57;;;;;;;;;;5093888;28;20510;-74
2022/09/17 00:32:46;;;;;;;23.55;4.97;;;;;;;;;;5092726;28;20039;-74
2022/09/17 00:36:01;;;;;;;16.27;4.82;;;;;;;;;;5093676;28;20062;-74
2022/09/17 00:39:06;;;;;;;19.15;5.00;;;;;;;;;;5093500;28;20036;-74
2022/09/17 00:42:11;;;;;;;21.58;5.03;;;;;;;;;;5093139;28;20047;-74
2022/09/17 00:45:16;;;;;;;21.38;4.97;;;;;;;;;;5093414;28;20043;-74
2022/09/17 00:48:20;;;;;;;23.83;5.47;;;;;;;;;;5092378;28;20053;-75
2022/09/17 00:51:30;;;;;;;27.58;5.80;;;;;;;;;;5093191;28;20032;-74
2022/09/17 00:54:36;;;;;;;24.88;5.40;;;;;;;;;;5093153;28;20040;-74
2022/09/17 00:57:41;;;;;;;23.35;5.85;;;;;;;;;;5092867;28;20523;-74
2022/09/17 01:00:46;;;;;;;24.45;6.40;;;;;;;;;;5093126;28;20028;-74
2022/09/17 01:03:50;;;;;;;28.13;7.38;;;;;;;;;;5092358;28;20035;-74
2022/09/17 01:07:14;;;;;;;23.58;6.80;;;;;;;;;;5091922;28;20511;-74
2022/09/17 01:10:55;;;;;;;22.42;6.15;;;;;;;;;;5080370;28;20059;-74
2022/09/17 01:14:13;;;;;;;27.10;7.03;;;;;;;;;;5090661;28;20496;-73
2022/09/17 01:17:17;;;;;;;23.38;7.07;;;;;;;;;;5092743;28;20032;-73
2022/09/17 01:20:22;;;;;;;21.00;6.07;;;;;;;;;;5092798;28;20051;-73
2022/09/17 01:23:38;;;;;;;22.95;5.82;;;;;;;;;;5092552;28;20040;-74
2022/09/17 01:26:58;;;;;;;20.50;6.13;;;;;;;;;;5091988;28;20044;-74
2022/09/17 01:30:21;;;;;;;26.83;6.47;;;;;;;;;;5092586;28;20055;-75
2022/09/17 01:33:39;;;;;;;19.70;5.93;;;;;;;;;;5092368;28;20416;-75
2022/09/17 01:36:46;;;;;;;26.13;6.82;;;;;;;;;;5091475;28;20409;-75
2022/09/17 01:40:00;;;;;;;29.27;6.63;;;;;;;;;;5092097;28;20381;-75
2022/09/17 01:43:07;;;;;;;25.55;6.47;;;;;;;;;;5091988;28;20039;-73
2022/09/17 01:46:22;;;;;;;27.40;6.82;;;;;;;;;;5092166;28;20511;-75
2022/09/17 01:49:27;;;;;;;30.48;8.38;;;;;;;;;;5092311;28;20040;-74
2022/09/17 01:52:35;;;;;;;40.88;8.65;;;;;;;;;;5079316;28;20040;-74
2022/09/17 01:55:41;;;;;;;27.40;8.88;;;;;;;;;;5091691;28;20048;-74
2022/09/17 01:58:49;;;;;;;28.40;7.88;;;;;;;;;;5091536;28;20043;-74
2022/09/17 02:01:57;;;;;;;22.20;7.32;;;;;;;;;;5091083;28;20046;-73
2022/09/17 02:05:05;;;;;;;18.70;5.65;;;;;;;;;;5090926;28;20044;-74
2022/09/17 02:08:40;;;;;;;16.33;4.68;;;;;;;;;;5090841;28;20048;-74
2022/09/17 02:11:47;;;;;;;17.52;4.50;;;;;;;;;;5094919;28;20032;-74
2022/09/17 02:14:53;;;;;;;18.63;4.20;;;;;;;;;;5092015;28;20036;-74
2022/09/17 02:18:10;;;;;;;14.13;2.90;;;;;;;;;;5091398;28;20043;-74
2022/09/17 02:21:16;;;;;;;9.95;2.53;;;;;;;;;;5090694;28;20044;-74
2022/09/17 02:24:26;;;;;;;11.50;2.50;;;;;;;;;;5090585;28;20036;-74
2022/09/17 02:27:41;;;;;;;8.07;1.95;;;;;;;;;;5090049;28;20040;-74
2022/09/17 02:30:46;;;;;;;9.70;2.80;;;;;;;;;;5091104;28;20040;-74
2022/09/17 02:33:53;;;;;;;13.60;2.60;;;;;;;;;;5091156;28;20028;-73
2022/09/17 02:36:58;;;;;;;10.15;2.70;;;;;;;;;;5090376;28;20388;-73
2022/09/17 02:40:03;;;;;;;12.05;2.78;;;;;;;;;;5090587;28;20040;-74
2022/09/17 02:43:22;;;;;;;16.63;2.75;;;;;;;;;;5091045;28;20040;-74
2022/09/17 02:46:45;;;;;;;17.20;3.03;;;;;;;;;;5091159;28;20044;-74
2022/09/17 02:50:00;;;;;;;15.10;3.20;;;;;;;;;;5090086;28;20047;-74
2022/09/17 02:53:07;;;;;;;24.15;3.33;;;;;;;;;;5091068;28;20439;-74
2022/09/17 02:56:12;;;;;;;16.25;3.53;;;;;;;;;;5090794;28;20039;-73
2022/09/17 02:59:30;;;;;;;21.80;4.38;;;;;;;;;;5090019;28;20036;-73
2022/09/17 03:02:40;;;;;;;22.30;3.33;;;;;;;;;;5090375;28;20044;-73
2022/09/17 03:05:45;;;;;;;32.58;4.55;;;;;;;;;;5089872;28;20043;-73
2022/09/17 03:08:50;;;;;;;41.95;5.85;;;;;;;;;;5090978;28;20048;-73
2022/09/17 03:11:54;;;;;;;36.78;6.85;;;;;;;;;;5092516;28;20391;-74
2022/09/17 03:14:58;;;;;;;28.33;6.32;;;;;;;;;;5094443;28;20506;-74
2022/09/17 03:18:03;;;;;;;23.00;5.35;;;;;;;;;;5093946;28;20039;-74
2022/09/17 03:21:07;;;;;;;28.05;5.93;;;;;;;;;;5094104;28;20185;-73
2022/09/17 03:24:12;;;;;;;11.93;3.08;;;;;;;;;;5094934;28;20044;-73
2022/09/17 03:27:16;;;;;;;10.68;3.22;;;;;;;;;;5094422;28;20048;-73
2022/09/17 03:30:20;;;;;;;13.68;2.92;;;;;;;;;;5093833;28;20051;-73
2022/09/17 03:33:25;;;;;;;17.00;3.25;;;;;;;;;;5093991;28;20477;-74
2022/09/17 03:36:29;;;;;;;8.85;2.40;;;;;;;;;;5093828;28;20097;-74
2022/09/17 03:39:33;;;;;;;6.88;2.05;;;;;;;;;;5094526;28;20036;-73
2022/09/17 03:42:38;;;;;;;7.72;1.85;;;;;;;;;;5094523;28;20032;-74
2022/09/17 03:45:43;;;;;;;6.85;1.77;;;;;;;;;;5094256;28;20040;-74
2022/09/17 03:48:47;;;;;;;8.80;2.60;;;;;;;;;;5093571;28;20044;-75
2022/09/17 03:51:51;;;;;;;9.73;1.80;;;;;;;;;;5094476;28;20032;-74
2022/09/17 03:54:56;;;;;;;6.43;2.03;;;;;;;;;;5094445;28;20386;-75
2022/09/17 03:58:00;;;;;;;13.38;3.28;;;;;;;;;;5094316;28;20036;-73
2022/09/17 04:01:05;;;;;;;15.02;2.65;;;;;;;;;;5093507;28;20047;-74
2022/09/17 04:04:09;;;;;;;11.10;3.42;;;;;;;;;;5094539;28;20043;-74
2022/09/17 04:07:13;;;;;;;10.98;2.45;;;;;;;;;;5093983;28;20040;-74
2022/09/17 04:10:18;;;;;;;9.35;2.38;;;;;;;;;;5093350;28;20044;-74
2022/09/17 04:13:22;;;;;;;15.98;3.72;;;;;;;;;;5093201;28;20032;-74
2022/09/17 04:16:26;;;;;;;11.80;2.58;;;;;;;;;;5092731;28;20051;-74
2022/09/17 04:19:31;;;;;;;14.00;3.03;;;;;;;;;;5094096;28;20044;-74
2022/09/17 04:22:35;;;;;;;13.00;2.90;;;;;;;;;;5093541;28;20032;-74
2022/09/17 04:25:40;;;;;;;23.92;3.83;;;;;;;;;;5093032;28;20503;-74
2022/09/17 04:28:44;;;;;;;19.65;4.38;;;;;;;;;;5092821;28;20059;-74
2022/09/17 04:31:48;;;;;;;15.18;3.67;;;;;;;;;;5093929;28;20043;-73
2022/09/17 04:34:53;;;;;;;26.90;4.13;;;;;;;;;;5093525;28;20491;-73
2022/09/17 04:37:57;;;;;;;27.70;4.28;;;;;;;;;;5092534;28;20036;-74
2022/09/17 04:41:01;;;;;;;25.48;3.58;;;;;;;;;;5092478;28;20565;-74
2022/09/17 04:44:06;;;;;;;22.92;4.85;;;;;;;;;;5093823;28;20036;-74
2022/09/17 04:47:10;;;;;;;26.25;4.80;;;;;;;;;;5093145;28;20047;-73
2022/09/17 04:50:15;;;;;;;17.52;3.08;;;;;;;;;;5093340;28;20352;-74
2022/09/17 04:53:19;;;;;;;25.55;3.88;;;;;;;;;;5092087;28;20036;-74
2022/09/17 04:56:23;;;;;;;16.58;3.45;;;;;;;;;;5092269;28;20294;-74
2022/09/17 04:59:28;;;;;;;21.40;3.90;;;;;;;;;;5092405;28;20039;-74
2022/09/17 05:02:32;;;;;;;20.63;4.03;;;;;;;;;;5092787;28;20356;-74
2022/09/17 05:05:36;;;;;;;17.30;3.33;;;;;;;;;;5092955;28;20494;-74
2022/09/17 05:08:40;;;;;;;21.73;3.92;;;;;;;;;;5080521;28;20059;-74
2022/09/17 05:11:45;;;;;;;22.95;4.28;;;;;;;;;;5092580;28;20441;-74
2022/09/17 05:14:50;;;;;;;31.88;5.50;;;;;;;;;;5092935;28;20051;-74
2022/09/17 05:17:54;;;;;;;23.90;4.28;;;;;;;;;;5091898;28;20044;-74
2022/09/17 05:20:58;;;;;;;18.02;3.67;;;;;;;;;;5091550;28;20497;-74
2022/09/17 05:24:02;;;;;;;22.17;4.30;;;;;;;;;;5092516;28;20417;-74
2022/09/17 05:27:08;;;;;;;18.23;4.25;;;;;;;;;;5091843;28;20052;-74
2022/09/17 05:30:13;;;;;;;28.17;4.95;;;;;;;;;;5092156;28;20040;-74
2022/09/17 05:33:18;;;;;;;26.08;4.63;;;;;;;;;;5091811;28;20039;-72
2022/09/17 05:36:22;;;;;;;23.98;3.95;;;;;;;;;;5092031;28;20098;-70
2022/09/17 05:39:27;;;;;;;31.67;5.57;;;;;;;;;;5092198;28;20506;-70
2022/09/17 05:42:31;;;;;;;22.77;4.93;;;;;;;;;;5092426;28;20036;-71
2022/09/17 05:45:36;;;;;;;17.30;4.05;;;;;;;;;;5092148;28;20036;-71
2022/09/17 05:48:42;;;;;;;26.85;4.40;;;;;;;;;;5091775;28;20048;-71
2022/09/17 05:51:47;;;;;;;21.42;4.05;;;;;;;;;;5091932;28;20039;-71
2022/09/17 05:54:51;;;;;;;14.38;4.15;;;;;;;;;;5092015;28;20045;-71
2022/09/17 05:57:55;;;;;;;21.55;4.63;;;;;;;;;;5091614;28;20514;-71
2022/09/17 06:01:00;;;;;;;22.25;4.00;;;;;;;;;;5091926;28;20040;-71
2022/09/17 06:04:04;;;;;;;20.60;4.32;;;;;;;;;;5091780;28;20369;-71
2022/09/17 06:07:09;;;;;;;21.48;4.55;;;;;;;;;;5091620;28;20028;-71
2022/09/17 06:10:13;;;;;;;23.88;4.55;;;;;;;;;;5091382;28;20056;-72
2022/09/17 06:13:18;;;;;;;21.35;4.70;;;;;;;;;;5091586;28;20032;-71
2022/09/17 06:16:23;;;;;;;20.42;4.10;;;;;;;;;;5091499;28;20044;-78
2022/09/17 06:19:27;;;;;;;15.63;4.03;;;;;;;;;;5091760;28;20032;-72
2022/09/17 06:22:31;;;;;;;21.17;3.95;;;;;;;;;;5091516;28;20043;-73
2022/09/17 06:25:35;;;;;;;17.88;3.72;;;;;;;;;;5090736;28;20039;-72
2022/09/17 06:28:40;;;;;;;11.38;3.38;;;;;;;;;;5091421;28;20040;-73
2022/09/17 06:31:44;;;;;;;19.85;3.80;;;;;;;;;;5091388;28;20036;-77
2022/09/17 06:34:49;;;;;;;18.85;3.85;;;;;;;;;;5091172;28;20032;-75
2022/09/17 06:37:53;;;;;;;25.45;3.92;;;;;;;;;;5091203;28;20249;-73
2022/09/17 06:40:58;;;;;;;19.13;4.18;;;;;;;;;;5091123;28;20043;-74
2022/09/17 06:44:02;;;;;;;21.10;4.30;;;;;;;;;;5090695;28;20048;-73
2022/09/17 06:47:06;;;;;;;19.88;3.90;;;;;;;;;;5090468;28;20035;-74
2022/09/17 06:50:11;;;;;;;20.40;4.13;;;;;;;;;;5091162;28;20040;-72
2022/09/17 06:53:16;;;;;;;19.85;4.43;;;;;;;;;;5091475;28;20368;-73
2022/09/17 06:56:20;;;;;;;18.13;4.53;;;;;;;;;;5090879;28;20036;-74
2022/09/17 06:59:25;;;;;;;18.27;4.28;;;;;;;;;;5090969;28;20048;-73
2022/09/17 07:02:29;;;;;;;18.35;3.92;;;;;;;;;;5089752;28;20494;-77
2022/09/17 07:05:34;;;;;;;20.52;4.03;;;;;;;;;;5090931;28;20048;-76
2022/09/17 07:08:38;;;;;;;16.73;4.90;;;;;;;;;;5090795;28;20046;-74
2022/09/17 07:11:43;;;;;;;15.88;4.07;;;;;;;;;;5090976;28;20047;-77
2022/09/17 07:14:47;;;;;;;13.43;4.93;;;;;;;;;;5091088;28;20040;-71
2022/09/17 07:17:52;;;;;;;30.45;5.53;;;;;;;;;;5091273;28;20044;-78
2022/09/17 07:21:00;;;;;;;18.77;4.63;;;;;;;;;;5089883;28;20032;-70
2022/09/17 07:24:04;;;;;;;18.13;4.97;;;;;;;;;;5090077;28;20506;-70
2022/09/17 07:27:08;;;;;;;21.85;4.65;;;;;;;;;;5090896;28;20036;-71
2022/09/17 07:30:14;;;;;;;25.90;5.43;;;;;;;;;;5090526;28;20439;-71
2022/09/17 07:33:22;;;;;;;11.60;4.65;;;;;;;;;;5090767;28;20502;-74
2022/09/17 07:36:26;;;;;;;12.98;4.97;;;;;;;;;;5090844;28;20047;-74
2022/09/17 07:39:30;;;;;;;12.48;4.93;;;;;;;;;;5090997;28;20036;-75
2022/09/17 07:42:35;;;;;;;13.43;4.32;;;;;;;;;;5090973;28;20040;-80
2022/09/17 07:45:39;;;;;;;15.90;5.28;;;;;;;;;;5092160;28;20032;-77
2022/09/17 07:48:43;;;;;;;15.68;4.88;;;;;;;;;;5090605;28;20147;-73
2022/09/17 07:51:48;;;;;;;11.65;4.32;;;;;;;;;;5091212;28;20043;-72
2022/09/17 07:54:52;;;;;;;13.07;4.50;;;;;;;;;;5090635;28;20063;-69
2022/09/17 07:57:56;;;;;;;14.95;4.55;;;;;;;;;;5092826;28;20040;-73
2022/09/17 08:01:02;;;;;;;16.73;4.82;;;;;;;;;;5094079;28;20028;-72
2022/09/17 08:04:06;;;;;;;18.95;5.03;;;;;;;;;;5094267;28;20028;-73
2022/09/17 08:07:12;;;;;;;12.90;4.43;;;;;;;;;;5094744;28;20499;-72
2022/09/17 08:10:20;;;;;;;11.75;4.57;;;;;;;;;;5094392;28;20154;-74
2022/09/17 08:13:24;;;;;;;13.80;3.95;;;;;;;;;;5094909;28;20044;-71
2022/09/17 08:16:30;;;;;;;11.05;3.80;;;;;;;;;;5094146;28;20059;-72
2022/09/17 08:19:34;;;;;;;18.33;5.05;;;;;;;;;;5094540;28;20047;-78
2022/09/17 08:22:38;;;;;;;13.65;4.13;;;;;;;;;;5093979;28;20036;-70
2022/09/17 08:25:43;;;;;;;13.70;4.03;;;;;;;;;;5093866;28;20043;-77
2022/09/17 08:28:48;;;;;;;16.40;4.35;;;;;;;;;;5093614;28;20139;-76
2022/09/17 08:31:52;;;;;;;13.60;6.38;;;;;;;;;;5093661;28;20060;-72
2022/09/17 08:34:57;;;;;;;9.60;3.40;;;;;;;;;;5093363;28;20036;-71
2022/09/17 08:38:01;;;;;;;13.50;4.75;;;;;;;;;;5094024;28;20036;-71
2022/09/17 08:41:24;;;;;;;9.40;3.78;;;;;;;;;;5092740;28;20201;-71
2022/09/17 08:44:39;;;;;;;15.20;4.60;;;;;;;;;;5093180;28;20036;-68
2022/09/17 08:47:45;;;;;;;15.85;4.13;;;;;;;;;;5093240;28;20040;-70
2022/09/17 08:50:50;;;;;;;11.95;4.40;;;;;;;;;;5092322;28;20518;-71
2022/09/17 08:53:57;;;;;;;11.20;3.70;;;;;;;;;;5092565;28;20032;-78
2022/09/17 08:57:19;;;;;;;10.95;4.53;;;;;;;;;;5092914;28;20047;-71
2022/09/17 09:00:25;;;;;;;10.95;3.65;;;;;;;;;;5092880;28;20044;-69
2022/09/17 09:03:44;;;;;;;12.00;4.53;;;;;;;;;;5092913;28;20032;-73
2022/09/17 09:06:51;;;;;;;10.38;4.20;;;;;;;;;;5092430;28;20043;-69
2022/09/17 09:10:10;;;;;;;16.90;4.50;;;;;;;;;;5091694;28;20404;-70
2022/09/17 09:13:16;;;;;;;17.38;4.55;;;;;;;;;;5092739;28;20585;-75
2022/09/17 09:16:23;;;;;;;22.35;4.82;;;;;;;;;;5091787;28;20047;-78
2022/09/17 09:19:29;;;;;;;13.95;3.67;;;;;;;;;;5092041;28;20362;-71
2022/09/17 09:22:39;;;;;;;13.45;4.18;;;;;;;;;;5092203;28;20043;-72
2022/09/17 09:25:51;;;;;;;12.00;3.70;;;;;;;;;;5092648;28;20036;-71
2022/09/17 09:29:05;;;;;;;7.05;3.38;;;;;;;;;;5050047;28;20373;-71
2022/09/17 09:32:09;;;;;;;17.60;4.53;;;;;;;;;;5050392;28;20477;-73
2022/09/17 09:35:14;;;;;;;9.43;3.40;;;;;;;;;;5050323;28;20047;-70
2022/09/17 09:38:41;;;;;;;12.63;3.50;;;;;;;;;;5051355;28;20041;-70
2022/09/17 09:41:48;;;;;;;13.15;4.07;;;;;;;;;;5049982;28;20037;-70
2022/09/17 09:44:53;;;;;;;8.23;3.20;;;;;;;;;;5052032;28;20040;-70
2022/09/17 09:48:02;;;;;;;8.30;3.10;;;;;;;;;;5052029;28;20041;-70
2022/09/17 09:51:45;;;;;;;10.15;3.30;;;;;;;;;;5051753;28;20036;-69
2022/09/17 09:55:08;;;;;;;13.35;4.07;;;;;;;;;;5068952;28;20633;-70
2022/09/17 09:58:15;;;;;;;12.18;3.95;;;;;;;;;;5066740;28;20036;-70
2022/09/17 10:01:21;;;;;;;11.90;3.47;;;;;;;;;;5051671;28;20037;-70
2022/09/17 10:04:26;;;;;;;14.45;3.92;;;;;;;;;;5051537;28;20041;-70
2022/09/17 10:07:30;;;;;;;10.30;3.40;;;;;;;;;;5051206;28;20033;-70
2022/09/17 10:10:36;;;;;;;13.20;4.05;;;;;;;;;;5051117;28;20048;-70
2022/09/17 10:13:40;;;;;;;10.57;3.13;;;;;;;;;;5051095;28;20033;-70
2022/09/17 10:16:44;;;;;;;8.88;3.50;;;;;;;;;;5051050;28;20041;-70
2022/09/17 10:20:04;;;;;;;18.25;3.65;;;;;;;;;;5051105;28;20064;-72
2022/09/17 10:23:08;;;;;;;13.50;3.58;;;;;;;;;;5053949;28;20048;-71
2022/09/17 10:26:31;;;;;;;7.10;3.33;;;;;;;;;;5050953;28;20043;-71
2022/09/17 10:29:35;;;;;;;5.85;2.90;;;;;;;;;;5090476;28;20043;-71
2022/09/17 10:32:39;;;;;;;9.60;3.17;;;;;;;;;;5090678;28;20365;-71
2022/09/17 10:35:54;;;;;;;11.57;3.15;;;;;;;;;;5090790;28;20048;-71
2022/09/17 10:39:17;;;;;;;6.13;3.10;;;;;;;;;;5090147;28;20040;-71
2022/09/17 10:42:21;;;;;;;9.52;3.33;;;;;;;;;;5091278;28;20032;-71
2022/09/17 10:45:28;;;;;;;18.80;3.67;;;;;;;;;;5091331;28;20491;-71
2022/09/17 10:48:33;;;;;;;12.00;3.45;;;;;;;;;;5091334;28;20061;-70
2022/09/17 10:51:39;;;;;;;12.63;3.47;;;;;;;;;;5091509;28;20048;-71
2022/09/17 10:55:06;;;;;;;10.82;3.25;;;;;;;;;;5091214;28;20044;-71
2022/09/17 10:58:20;;;;;;;16.50;3.88;;;;;;;;;;5090998;28;20047;-70
2022/09/17 11:01:34;;;;;;;10.63;3.45;;;;;;;;;;5090799;28;20510;-70
2022/09/17 11:04:51;;;;;;;15.40;3.85;;;;;;;;;;5091021;28;20032;-71
2022/09/17 11:08:00;;;;;;;18.77;3.83;;;;;;;;;;5091116;28;20051;-71
2022/09/17 11:11:16;;;;;;;8.68;3.38;;;;;;;;;;5091285;28;20048;-71
2022/09/17 11:14:40;;;;;;;13.05;3.38;;;;;;;;;;5090908;28;20032;-71
2022/09/17 11:17:45;;;;;;;15.20;3.80;;;;;;;;;;5089892;28;20297;-71
2022/09/17 11:20:52;;;;;;;11.77;3.65;;;;;;;;;;5090777;28;20032;-71
2022/09/17 11:24:12;;;;;;;11.13;3.10;;;;;;;;;;5090819;28;20499;-71
2022/09/17 11:27:35;;;;;;;14.13;3.50;;;;;;;;;;5090395;28;20044;-70
2022/09/17 11:30:56;;;;;;;13.10;3.80;;;;;;;;;;5090422;28;20133;-71
2022/09/17 11:34:20;;;;;;;11.55;4.00;;;;;;;;;;5094799;28;20058;-71
2022/09/17 11:37:27;;;;;;;15.13;4.13;;;;;;;;;;5094511;28;20040;-71
2022/09/17 11:40:35;;;;;;;11.73;3.58;;;;;;;;;;5094532;28;20035;-71
2022/09/17 11:43:46;;;;;;;11.40;4.05;;;;;;;;;;5094445;28;20044;-71
2022/09/17 11:46:50;;;;;;;;;;;;;;;;;;5095444;28;20357;-70
2022/09/17 11:50:00;;;;;;;16.67;4.10;;;;;;;;;;5094191;28;19930;-71
2022/09/17 11:53:08;;;;;;;10.43;3.28;;;;;;;;;;5094308;28;20032;-71
2022/09/17 11:56:21;;;;;;;17.88;3.67;;;;;;;;;;5094481;28;20036;-71
2022/09/17 11:59:38;;;;;;;13.68;4.10;;;;;;;;;;5094129;28;20040;-71
2022/09/17 12:02:43;;;;;;;14.70;3.72;;;;;;;;;;5094450;28;20043;-71
2022/09/17 12:05:53;;;;;;;13.45;3.60;;;;;;;;;;5094009;28;20507;-71
2022/09/17 12:09:13;;;;;;;9.45;3.53;;;;;;;;;;5093203;28;20399;-71
2022/09/17 12:12:19;;;;;;;14.65;3.47;;;;;;;;;;5094098;28;20036;-71
2022/09/17 12:15:26;;;;;;;12.40;4.63;;;;;;;;;;5094093;28;20044;-71
2022/09/17 12:18:34;;;;;;;13.77;3.45;;;;;;;;;;5094144;28;20032;-71
2022/09/17 12:21:46;;;;;;;20.92;4.90;;;;;;;;;;5093992;28;20036;-71
2022/09/17 12:24:51;;;;;;;15.45;4.78;;;;;;;;;;5093658;28;20422;-71
2022/09/17 12:28:02;;;;;;;13.45;3.95;;;;;;;;;;5093349;28;20081;-71
2022/09/17 12:31:11;;;;;;;11.48;3.25;;;;;;;;;;5093857;28;20044;-71
2022/09/17 12:34:34;;;;;;;19.42;4.70;;;;;;;;;;5092349;28;20032;-71
2022/09/17 12:37:56;;;;;;;19.33;4.22;;;;;;;;;;5092880;28;20040;-71
2022/09/17 12:41:07;;;;;;;9.52;3.70;;;;;;;;;;5093319;28;20503;-71
2022/09/17 12:44:15;;;;;;;15.32;4.25;;;;;;;;;;5092323;28;20040;-71
2022/09/17 12:47:31;;;;;;;10.88;3.90;;;;;;;;;;5092329;28;20035;-71
2022/09/17 12:50:35;;;;;;;12.68;4.22;;;;;;;;;;5092900;28;20048;-76
2022/09/17 12:53:46;;;;;;;14.35;4.20;;;;;;;;;;5092959;28;20158;-72
2022/09/17 12:56:58;;;;;;;14.48;3.88;;;;;;;;;;5092198;28;20040;-73
2022/09/17 13:00:06;;;;;;;20.23;4.97;;;;;;;;;;5092454;28;20391;-72
2022/09/17 13:03:19;;;;;;;12.50;3.78;;;;;;;;;;5093264;28;20043;-71
2022/09/17 13:06:24;;;;;;;12.80;3.78;;;;;;;;;;5092874;28;20043;-73
2022/09/17 13:09:28;;;;;;;11.35;3.53;;;;;;;;;;5092749;28;20052;-73
2022/09/17 13:12:40;;;;;;;13.57;3.50;;;;;;;;;;5092716;28;20039;-72
2022/09/17 13:15:57;;;;;;;18.20;4.10;;;;;;;;;;5092454;28;20063;-73
2022/09/17 13:19:04;;;;;;;14.07;3.75;;;;;;;;;;5092801;28;20073;-72
2022/09/17 13:22:09;;;;;;;15.75;4.03;;;;;;;;;;5092526;28;20036;-71
2022/09/17 13:25:14;;;;;;;11.68;3.25;;;;;;;;;;5092193;28;20043;-72
2022/09/17 13:28:19;;;;;;;16.70;4.53;;;;;;;;;;5092388;28;20496;-72
2022/09/17 13:31:39;;;;;;;12.82;3.53;;;;;;;;;;5092196;28;20044;-71
2022/09/17 13:34:43;;;;;;;15.40;4.25;;;;;;;;;;5092254;28;20399;-71
2022/09/17 13:37:50;;;;;;;18.88;4.05;;;;;;;;;;5092407;28;20039;-71
2022/09/17 13:41:15;;;;;;;18.85;4.07;;;;;;;;;;5092752;28;20048;-72
2022/09/17 13:44:21;;;;;;;17.77;3.83;;;;;;;;;;5092467;28;20047;-71
2022/09/17 13:47:28;;;;;;;19.08;3.80;;;;;;;;;;5092278;28;20040;-71
2022/09/17 13:50:33;;;;;;;9.88;3.47;;;;;;;;;;5092145;28;20510;-71
2022/09/17 13:53:37;;;;;;;11.73;3.40;;;;;;;;;;5091331;28;20039;-71
2022/09/17 13:56:48;;;;;;;14.95;3.88;;;;;;;;;;5091962;28;20036;-70
2022/09/17 13:59:57;;;;;;;13.50;3.38;;;;;;;;;;5092024;28;20032;-71
2022/09/17 14:03:20;;;;;;;17.80;3.70;;;;;;;;;;5092207;28;20032;-71
2022/09/17 14:06:24;;;;;;;23.50;4.40;;;;;;;;;;5092027;28;20036;-71
2022/09/17 14:09:34;;;;;;;13.60;4.03;;;;;;;;;;5092012;28;20047;-71
2022/09/17 14:12:49;;;;;;;16.17;4.03;;;;;;;;;;5090979;28;20388;-72
2022/09/17 14:15:55;;;;;;;13.65;4.18;;;;;;;;;;5091807;28;20066;-72
2022/09/17 14:19:02;;;;;;;13.93;3.80;;;;;;;;;;5091598;28;20043;-72
2022/09/17 14:22:38;;;;;;;21.42;4.82;;;;;;;;;;5091683;28;20055;-72
2022/09/17 14:25:47;;;;;;;19.15;3.67;;;;;;;;;;5088990;28;20214;-72
2022/09/17 14:29:10;;;;;;;26.13;4.38;;;;;;;;;;5090730;28;20209;-73
2022/09/17 14:32:21;;;;;;;33.72;5.72;;;;;;;;;;5091564;28;20055;-73
2022/09/17 14:35:30;;;;;;;16.83;4.53;;;;;;;;;;5091073;28;20065;-71
2022/09/17 14:38:43;;;;;;;19.85;3.60;;;;;;;;;;5089823;28;20047;-71
2022/09/17 14:41:48;;;;;;;21.60;4.50;;;;;;;;;;5090262;28;20508;-71
2022/09/17 14:45:02;;;;;;;19.25;4.60;;;;;;;;;;5090117;28;20032;-71
2022/09/17 14:48:25;;;;;;;17.48;4.18;;;;;;;;;;5089453;28;20403;-70
2022/09/17 14:51:29;;;;;;;19.95;4.32;;;;;;;;;;5090186;28;20363;-70
2022/09/17 14:54:33;;;;;;;20.77;5.03;;;;;;;;;;5089868;28;20507;-70
2022/09/17 14:57:38;;;;;;;26.23;5.70;;;;;;;;;;5090986;28;20044;-71
2022/09/17 15:00:50;;;;;;;20.85;4.95;;;;;;;;;;5090808;28;20032;-71
2022/09/17 15:04:13;;;;;;;27.15;5.38;;;;;;;;;;5091065;28;20036;-71
2022/09/17 15:07:19;;;;;;;20.95;5.40;;;;;;;;;;5091671;28;20040;-71
2022/09/17 15:10:24;;;;;;;18.23;4.57;;;;;;;;;;5095251;28;20056;-71
2022/09/17 15:13:30;;;;;;;23.58;5.25;;;;;;;;;;5095360;28;20071;-72
2022/09/17 15:16:35;;;;;;;22.20;5.18;;;;;;;;;;5094773;28;20043;-71
2022/09/17 15:19:41;;;;;;;27.50;5.82;;;;;;;;;;5093915;28;20039;-71
2022/09/17 15:22:47;;;;;;;26.48;4.88;;;;;;;;;;5094628;28;20068;-71
2022/09/17 15:25:54;;;;;;;19.45;4.60;;;;;;;;;;5094656;28;20406;-71
2022/09/17 15:28:59;;;;;;;22.52;5.22;;;;;;;;;;5094548;28;20040;-72
2022/09/17 15:32:05;;;;;;;23.30;4.95;;;;;;;;;;5094808;28;20039;-71
2022/09/17 15:35:18;;;;;;;34.35;5.82;;;;;;;;;;5094527;28;20055;-72
2022/09/17 15:38:26;;;;;;;18.65;4.30;;;;;;;;;;5094605;28;20516;-72
2022/09/17 15:41:32;;;;;;;20.00;4.75;;;;;;;;;;5094897;28;20049;-71
2022/09/17 15:44:37;;;;;;;28.55;5.18;;;;;;;;;;5094235;28;20523;-72
2022/09/17 15:47:50;;;;;;;26.88;4.90;;;;;;;;;;5094110;28;20028;-72
2022/09/17 15:50:59;;;;;;;26.48;4.63;;;;;;;;;;5094313;28;20059;-72
2022/09/17 15:54:04;;;;;;;26.58;4.25;;;;;;;;;;5094409;28;20032;-72
2022/09/17 15:57:13;;;;;;;33.90;5.47;;;;;;;;;;5094476;28;20047;-72
2022/09/17 16:00:18;;;;;;;36.08;4.95;;;;;;;;;;5094379;28;20036;-72
2022/09/17 16:03:35;;;;;;;20.63;4.40;;;;;;;;;;5094214;28;20107;-72
2022/09/17 16:06:47;;;;;;;28.95;5.55;;;;;;;;;;5094079;28;20032;-72
2022/09/17 16:09:52;;;;;;;24.73;5.03;;;;;;;;;;5093868;28;20032;-71
2022/09/17 16:12:56;;;;;;;23.45;5.50;;;;;;;;;;5094057;28;20036;-71
2022/09/17 16:16:00;;;;;;;31.88;5.68;;;;;;;;;;5094258;28;20040;-72
2022/09/17 16:19:05;;;;;;;19.42;4.03;;;;;;;;;;5093399;28;20058;-71
2022/09/17 16:22:10;;;;;;;25.33;5.18;;;;;;;;;;5093571;28;20042;-70
2022/09/17 16:25:15;;;;;;;26.52;5.65;;;;;;;;;;5093375;28;20055;-71
2022/09/17 16:28:19;;;;;;;24.00;4.55;;;;;;;;;;5093408;28;20036;-71
2022/09/17 16:31:25;;;;;;;23.05;4.65;;;;;;;;;;5093262;28;20040;-72
2022/09/17 16:34:29;;;;;;;25.48;4.85;;;;;;;;;;5093728;28;20040;-71
2022/09/17 16:37:33;;;;;;;35.70;7.32;;;;;;;;;;5093695;28;20040;-71
2022/09/17 16:40:42;;;;;;;35.35;6.25;;;;;;;;;;5093643;28;20416;-70
2022/09/17 16:43:46;;;;;;;22.10;5.57;;;;;;;;;;5093287;28;20044;-72
2022/09/17 16:46:50;;;;;;;33.53;6.50;;;;;;;;;;5093271;28;20544;-72
2022/09/17 16:49:55;;;;;;;27.88;6.47;;;;;;;;;;5092981;28;20488;-71
2022/09/17 16:52:59;;;;;;;43.10;7.35;;;;;;;;;;5091883;28;20032;-71
2022/09/17 16:56:07;;;;;;;43.78;6.53;;;;;;;;;;5092783;28;20032;-71
2022/09/17 16:59:12;;;;;;;28.73;6.15;;;;;;;;;;5093264;28;20051;-72
2022/09/17 17:02:16;;;;;;;29.70;6.78;;;;;;;;;;5092960;28;20040;-72
2022/09/17 17:05:22;;;;;;;27.75;6.03;;;;;;;;;;5092847;28;20048;-72
2022/09/17 17:08:26;;;;;;;32.67;6.32;;;;;;;;;;5092849;28;20036;-72
2022/09/17 17:11:30;;;;;;;39.97;7.68;;;;;;;;;;5092624;28;20048;-71
2022/09/17 17:14:34;;;;;;;45.47;7.95;;;;;;;;;;5092511;28;20421;-71
2022/09/17 17:17:39;;;;;;;45.45;7.10;;;;;;;;;;5092911;28;20047;-72
2022/09/17 17:20:43;;;;;;;57.13;8.70;;;;;;;;;;5092078;28;20036;-76
2022/09/17 17:23:47;;;;;;;66.90;7.82;;;;;;;;;;5090445;28;20040;-76
2022/09/17 17:26:51;;;;;;;50.55;8.27;;;;;;;;;;5092224;28;20128;-76
2022/09/17 17:29:56;;;;;;;47.00;8.07;;;;;;;;;;5091724;28;20507;-76
2022/09/17 17:33:02;;;;;;;45.25;7.50;;;;;;;;;;5091443;28;20424;-75
2022/09/17 17:36:07;;;;;;;44.97;8.27;;;;;;;;;;5090640;28;20040;-76
2022/09/17 17:39:11;;;;;;;38.17;7.90;;;;;;;;;;5091890;28;20391;-75
2022/09/17 17:42:15;;;;;;;38.75;7.15;;;;;;;;;;5092100;28;20028;-75
2022/09/17 17:45:19;;;;;;;37.58;7.28;;;;;;;;;;5091890;28;20043;-75
2022/09/17 17:48:24;;;;;;;54.75;10.35;;;;;;;;;;5092187;28;20039;-76
2022/09/17 17:51:28;;;;;;;42.70;7.55;;;;;;;;;;5090770;28;20055;-76
2022/09/17 17:54:32;;;;;;;47.92;10.55;;;;;;;;;;5091680;28;20044;-75
2022/09/17 17:57:37;;;;;;;53.42;10.93;;;;;;;;;;5091858;28;20503;-76
2022/09/17 18:00:41;;;;;;;35.03;7.45;;;;;;;;;;5091558;28;20047;-76
2022/09/17 18:03:46;;;;;;;33.95;5.68;;;;;;;;;;5091110;28;20044;-75
2022/09/17 18:06:50;;;;;;;37.13;6.57;;;;;;;;;;5090785;28;20028;-76
2022/09/17 18:09:54;;;;;;;35.10;7.75;;;;;;;;;;5091219;28;20073;-76
2022/09/17 18:12:58;;;;;;;36.80;6.28;;;;;;;;;;5090208;28;20489;-75
2022/09/17 18:16:03;;;;;;;32.38;6.68;;;;;;;;;;5091266;28;20040;-76
2022/09/17 18:19:10;;;;;;;37.50;7.47;;;;;;;;;;5091394;28;20036;-75
2022/09/17 18:22:14;;;;;;;45.70;8.18;;;;;;;;;;5078623;28;20032;-75
2022/09/17 18:25:18;;;;;;;38.75;7.90;;;;;;;;;;5078735;28;20053;-75
2022/09/17 18:28:23;;;;;;;38.28;7.28;;;;;;;;;;5090857;28;20044;-75
2022/09/17 18:31:28;;;;;;;46.50;10.63;;;;;;;;;;5090979;28;20044;-75